GMERC EGCV-EG09
Flight info
| Callsign | GMERC |
|---|---|
| Flight time | N/A |
| Altitude | 3000 |
| Route | VFR SLEAP / NW TRANSIT CORRIDOOR / BLACKBURN / SETTLE / BARNARD CASTLE / TYNE BRIDGES / MORPETH RAILWAY STATION / ESHOTT |
| Aircraft | PA24/L-SDGRY/G |
Departure
| Time | 2026-05-04 17:17 |
|---|---|
| Airport | Sleap Airfield (EGCV) |
Arrival
| Time | N/A |
|---|---|
| Airport | EG09 |
| Time | Latitude | Longitude | Altitude | Speed | Heading |
|---|---|---|---|---|---|
| 2026-05-04 17:05 | 52.83528 | -2.76577 | 277 ft | 0 kts | 134° |
| 2026-05-04 17:11 | 52.83527 | -2.76576 | 277 ft | 1 kts | 133° |
| 2026-05-04 17:12 | 52.83517 | -2.76573 | 277 ft | 2 kts | 202° |
| 2026-05-04 17:12 | 52.83372 | -2.76660 | 276 ft | 16 kts | 200° |
| 2026-05-04 17:13 | 52.83242 | -2.76713 | 276 ft | 0 kts | 193° |
| 2026-05-04 17:14 | 52.83220 | -2.76722 | 275 ft | 1 kts | 193° |
| 2026-05-04 17:14 | 52.83153 | -2.76751 | 275 ft | 13 kts | 193° |
| 2026-05-04 17:14 | 52.83066 | -2.76788 | 275 ft | 2 kts | 195° |
| 2026-05-04 17:15 | 52.83038 | -2.76799 | 275 ft | 13 kts | 192° |
| 2026-05-04 17:15 | 52.82875 | -2.76860 | 274 ft | 5 kts | 196° |
| 2026-05-04 17:16 | 52.82825 | -2.76881 | 274 ft | 13 kts | 191° |
| 2026-05-04 17:16 | 52.83248 | -2.77033 | 346 ft | 81 kts | 356° |
| 2026-05-04 17:17 | 52.83862 | -2.77141 | 692 ft | 90 kts | 357° |
| 2026-05-04 17:17 | 52.85778 | -2.76397 | 1481 ft | 119 kts | 13° |
| 2026-05-04 17:18 | 52.86621 | -2.75933 | 1451 ft | 135 kts | 22° |
| 2026-05-04 17:18 | 52.88337 | -2.74389 | 1420 ft | 137 kts | 28° |
| 2026-05-04 17:19 | 52.89873 | -2.72851 | 1414 ft | 122 kts | 27° |
| 2026-05-04 17:19 | 52.91336 | -2.71559 | 1425 ft | 117 kts | 25° |
| 2026-05-04 17:20 | 52.92714 | -2.70304 | 1436 ft | 113 kts | 24° |
| 2026-05-04 17:20 | 52.94050 | -2.69346 | 1415 ft | 96 kts | 17° |
| 2026-05-04 17:20 | 52.94658 | -2.68981 | 1408 ft | 90 kts | 18° |
| 2026-05-04 17:21 | 52.95785 | -2.68319 | 1381 ft | 84 kts | 17° |
| 2026-05-04 17:21 | 52.96966 | -2.67652 | 1402 ft | 97 kts | 17° |
| 2026-05-04 17:22 | 52.97639 | -2.67303 | 1443 ft | 106 kts | 17° |
| 2026-05-04 17:22 | 52.98361 | -2.66928 | 1470 ft | 110 kts | 17° |
| 2026-05-04 17:23 | 53.00775 | -2.65608 | 1340 ft | 125 kts | 17° |
| 2026-05-04 17:23 | 53.01599 | -2.65144 | 1336 ft | 126 kts | 18° |
| 2026-05-04 17:23 | 53.03252 | -2.64201 | 1333 ft | 125 kts | 18° |
| 2026-05-04 17:24 | 53.04071 | -2.63723 | 1339 ft | 125 kts | 17° |
| 2026-05-04 17:24 | 53.06542 | -2.62311 | 1332 ft | 125 kts | 18° |
| 2026-05-04 17:25 | 53.07356 | -2.61797 | 1333 ft | 126 kts | 19° |
| 2026-05-04 17:25 | 53.08980 | -2.60834 | 1333 ft | 122 kts | 19° |
| 2026-05-04 17:26 | 53.10602 | -2.59940 | 1337 ft | 122 kts | 18° |
| 2026-05-04 17:26 | 53.13047 | -2.58727 | 1336 ft | 122 kts | 13° |
| 2026-05-04 17:27 | 53.14694 | -2.58001 | 1338 ft | 123 kts | 15° |
| 2026-05-04 17:27 | 53.16368 | -2.57478 | 1336 ft | 123 kts | 359° |
| 2026-05-04 17:28 | 53.18082 | -2.57493 | 1334 ft | 123 kts | 360° |
| 2026-05-04 17:29 | 53.20673 | -2.57488 | 1336 ft | 125 kts | 0° |
| 2026-05-04 17:29 | 53.23248 | -2.57463 | 1336 ft | 123 kts | 0° |
| 2026-05-04 17:30 | 53.25815 | -2.57570 | 1338 ft | 123 kts | 359° |
| 2026-05-04 17:31 | 53.27521 | -2.57635 | 1336 ft | 123 kts | 360° |
| 2026-05-04 17:31 | 53.30091 | -2.57716 | 1335 ft | 122 kts | 359° |
| 2026-05-04 17:32 | 53.31786 | -2.57696 | 1337 ft | 123 kts | 1° |
| 2026-05-04 17:33 | 53.34370 | -2.57785 | 1338 ft | 125 kts | 358° |
| 2026-05-04 17:33 | 53.35229 | -2.57705 | 1338 ft | 122 kts | 6° |
| 2026-05-04 17:34 | 53.37785 | -2.57216 | 1342 ft | 124 kts | 6° |
| 2026-05-04 17:34 | 53.38645 | -2.57030 | 1339 ft | 125 kts | 6° |
| 2026-05-04 17:35 | 53.41201 | -2.56491 | 1336 ft | 123 kts | 6° |
| 2026-05-04 17:35 | 53.42888 | -2.56150 | 1337 ft | 120 kts | 6° |
| 2026-05-04 17:35 | 53.43723 | -2.55995 | 1337 ft | 121 kts | 6° |
| 2026-05-04 17:36 | 53.44279 | -2.55875 | 1337 ft | 120 kts | 5° |
| 2026-05-04 17:36 | 53.45112 | -2.55714 | 1338 ft | 121 kts | 6° |
| 2026-05-04 17:36 | 53.45955 | -2.55577 | 1335 ft | 122 kts | 5° |
| 2026-05-04 17:36 | 53.46786 | -2.55425 | 1334 ft | 120 kts | 7° |
| 2026-05-04 17:37 | 53.47626 | -2.55276 | 1336 ft | 120 kts | 6° |
| 2026-05-04 17:37 | 53.48454 | -2.55105 | 1335 ft | 120 kts | 6° |
| 2026-05-04 17:37 | 53.49295 | -2.54953 | 1339 ft | 122 kts | 6° |
| 2026-05-04 17:37 | 53.50139 | -2.54821 | 1343 ft | 122 kts | 6° |
| 2026-05-04 17:38 | 53.50990 | -2.54660 | 1342 ft | 124 kts | 5° |
| 2026-05-04 17:38 | 53.51850 | -2.54492 | 1336 ft | 124 kts | 6° |
| 2026-05-04 17:38 | 53.52709 | -2.54322 | 1363 ft | 125 kts | 6° |
| 2026-05-04 17:38 | 53.53561 | -2.54145 | 1535 ft | 121 kts | 7° |
| 2026-05-04 17:39 | 53.55257 | -2.53815 | 1827 ft | 119 kts | 6° |
| 2026-05-04 17:39 | 53.56063 | -2.53674 | 2044 ft | 118 kts | 7° |
| 2026-05-04 17:39 | 53.56901 | -2.53511 | 2131 ft | 122 kts | 6° |
| 2026-05-04 17:40 | 53.57723 | -2.53341 | 2353 ft | 118 kts | 8° |
| 2026-05-04 17:40 | 53.58545 | -2.53095 | 2456 ft | 122 kts | 9° |
| 2026-05-04 17:40 | 53.59382 | -2.52846 | 2521 ft | 127 kts | 10° |
| 2026-05-04 17:40 | 53.60278 | -2.52579 | 2517 ft | 132 kts | 9° |
| 2026-05-04 17:41 | 53.61208 | -2.52293 | 2468 ft | 139 kts | 8° |
| 2026-05-04 17:41 | 53.62163 | -2.52021 | 2477 ft | 138 kts | 10° |
| 2026-05-04 17:41 | 53.63109 | -2.51712 | 2494 ft | 139 kts | 10° |
| 2026-05-04 17:41 | 53.64066 | -2.51409 | 2496 ft | 140 kts | 10° |
| 2026-05-04 17:42 | 53.65024 | -2.51106 | 2505 ft | 142 kts | 10° |
| 2026-05-04 17:42 | 53.65988 | -2.50760 | 2506 ft | 141 kts | 10° |
| 2026-05-04 17:42 | 53.66937 | -2.50451 | 2506 ft | 141 kts | 9° |
| 2026-05-04 17:42 | 53.67896 | -2.50142 | 2510 ft | 140 kts | 10° |
| 2026-05-04 17:43 | 53.68860 | -2.49833 | 2507 ft | 141 kts | 8° |
| 2026-05-04 17:43 | 53.69829 | -2.49554 | 2503 ft | 141 kts | 10° |
| 2026-05-04 17:43 | 53.70797 | -2.49234 | 2506 ft | 142 kts | 9° |
| 2026-05-04 17:43 | 53.71756 | -2.48880 | 2505 ft | 140 kts | 11° |
| 2026-05-04 17:44 | 53.72716 | -2.48562 | 2504 ft | 142 kts | 10° |
| 2026-05-04 17:44 | 53.73681 | -2.48234 | 2503 ft | 142 kts | 7° |
| 2026-05-04 17:44 | 53.74636 | -2.47868 | 2503 ft | 141 kts | 17° |
| 2026-05-04 17:44 | 53.75561 | -2.47296 | 2500 ft | 141 kts | 18° |
| 2026-05-04 17:45 | 53.76488 | -2.46710 | 2503 ft | 142 kts | 19° |
| 2026-05-04 17:45 | 53.77410 | -2.46096 | 2504 ft | 142 kts | 20° |
| 2026-05-04 17:45 | 53.78332 | -2.45493 | 2499 ft | 142 kts | 18° |
| 2026-05-04 17:45 | 53.79239 | -2.44911 | 2500 ft | 141 kts | 18° |
| 2026-05-04 17:46 | 53.80152 | -2.44298 | 2504 ft | 141 kts | 19° |
| 2026-05-04 17:46 | 53.81065 | -2.43687 | 2503 ft | 142 kts | 20° |
| 2026-05-04 17:46 | 53.81987 | -2.43088 | 2498 ft | 142 kts | 19° |
| 2026-05-04 17:46 | 53.82910 | -2.42469 | 2501 ft | 142 kts | 19° |
| 2026-05-04 17:47 | 53.83827 | -2.41870 | 2500 ft | 142 kts | 18° |
| 2026-05-04 17:47 | 53.84756 | -2.41276 | 2499 ft | 142 kts | 19° |
| 2026-05-04 17:47 | 53.85676 | -2.40657 | 2502 ft | 143 kts | 20° |
| 2026-05-04 17:47 | 53.86599 | -2.40031 | 2494 ft | 142 kts | 19° |
| 2026-05-04 17:48 | 53.87520 | -2.39404 | 2494 ft | 144 kts | 19° |
| 2026-05-04 17:48 | 53.88453 | -2.38774 | 2495 ft | 145 kts | 19° |
| 2026-05-04 17:48 | 53.89386 | -2.38140 | 2494 ft | 144 kts | 19° |
| 2026-05-04 17:48 | 53.90314 | -2.37496 | 2494 ft | 144 kts | 19° |
| 2026-05-04 17:49 | 53.91236 | -2.36860 | 2495 ft | 141 kts | 19° |
| 2026-05-04 17:49 | 53.92155 | -2.36233 | 2497 ft | 142 kts | 17° |
| 2026-05-04 17:49 | 53.93047 | -2.35613 | 2496 ft | 140 kts | 18° |
| 2026-05-04 17:49 | 53.93949 | -2.34959 | 2495 ft | 139 kts | 19° |
| 2026-05-04 17:50 | 53.94840 | -2.34300 | 2499 ft | 141 kts | 21° |
| 2026-05-04 17:50 | 53.95743 | -2.33638 | 2495 ft | 140 kts | 18° |
| 2026-05-04 17:50 | 53.96642 | -2.33016 | 2495 ft | 139 kts | 19° |
| 2026-05-04 17:50 | 53.97544 | -2.32370 | 2494 ft | 142 kts | 18° |
| 2026-05-04 17:51 | 53.98456 | -2.31747 | 2493 ft | 142 kts | 18° |
| 2026-05-04 17:51 | 53.99379 | -2.31108 | 2492 ft | 143 kts | 18° |
| 2026-05-04 17:51 | 54.00300 | -2.30475 | 2496 ft | 144 kts | 19° |
| 2026-05-04 17:51 | 54.01236 | -2.29787 | 2499 ft | 149 kts | 20° |
| 2026-05-04 17:52 | 54.02199 | -2.29091 | 2497 ft | 152 kts | 18° |
| 2026-05-04 17:52 | 54.03182 | -2.28394 | 2494 ft | 153 kts | 19° |
| 2026-05-04 17:52 | 54.04168 | -2.27709 | 2491 ft | 154 kts | 20° |
| 2026-05-04 17:52 | 54.05165 | -2.27004 | 2490 ft | 155 kts | 18° |
| 2026-05-04 17:53 | 54.06159 | -2.26302 | 2490 ft | 154 kts | 19° |
| 2026-05-04 17:53 | 54.07147 | -2.25584 | 2487 ft | 154 kts | 19° |
| 2026-05-04 17:53 | 54.08117 | -2.24898 | 2484 ft | 153 kts | 19° |
| 2026-05-04 17:53 | 54.09106 | -2.24193 | 2489 ft | 154 kts | 19° |
| 2026-05-04 17:54 | 54.10104 | -2.23511 | 2493 ft | 154 kts | 19° |
| 2026-05-04 17:54 | 54.11091 | -2.22814 | 2490 ft | 153 kts | 20° |
| 2026-05-04 17:54 | 54.12076 | -2.22096 | 2492 ft | 155 kts | 18° |
| 2026-05-04 17:54 | 54.13085 | -2.21406 | 2495 ft | 159 kts | 18° |
| 2026-05-04 17:55 | 54.14104 | -2.20660 | 2591 ft | 159 kts | 19° |
| 2026-05-04 17:55 | 54.15093 | -2.19964 | 2836 ft | 153 kts | 19° |
| 2026-05-04 17:55 | 54.16054 | -2.19289 | 3092 ft | 146 kts | 19° |
| 2026-05-04 17:55 | 54.17003 | -2.18559 | 2983 ft | 154 kts | 20° |
| 2026-05-04 17:56 | 54.17965 | -2.17878 | 3024 ft | 148 kts | 19° |
| 2026-05-04 17:56 | 54.18922 | -2.17225 | 2965 ft | 151 kts | 19° |
| 2026-05-04 17:56 | 54.19902 | -2.16513 | 2983 ft | 155 kts | 19° |
| 2026-05-04 17:56 | 54.20897 | -2.15809 | 2998 ft | 155 kts | 18° |
| 2026-05-04 17:57 | 54.21893 | -2.15101 | 3000 ft | 155 kts | 19° |
| 2026-05-04 17:57 | 54.22886 | -2.14345 | 3000 ft | 156 kts | 19° |
| 2026-05-04 17:57 | 54.23898 | -2.13649 | 3000 ft | 157 kts | 18° |
| 2026-05-04 17:57 | 54.24905 | -2.12930 | 2998 ft | 156 kts | 18° |
| 2026-05-04 17:58 | 54.25916 | -2.12251 | 3001 ft | 156 kts | 20° |
| 2026-05-04 17:58 | 54.26922 | -2.11517 | 2997 ft | 157 kts | 20° |
| 2026-05-04 17:58 | 54.27935 | -2.10771 | 3002 ft | 159 kts | 19° |
| 2026-05-04 17:58 | 54.28948 | -2.10061 | 2996 ft | 159 kts | 19° |
| 2026-05-04 17:59 | 54.29969 | -2.09336 | 2997 ft | 159 kts | 18° |
| 2026-05-04 17:59 | 54.30983 | -2.08614 | 2992 ft | 157 kts | 19° |
| 2026-05-04 17:59 | 54.32997 | -2.07135 | 2994 ft | 157 kts | 21° |
| 2026-05-04 18:00 | 54.33997 | -2.06354 | 2994 ft | 157 kts | 19° |
| 2026-05-04 18:00 | 54.35004 | -2.05632 | 2994 ft | 158 kts | 18° |
| 2026-05-04 18:00 | 54.36022 | -2.04881 | 2992 ft | 160 kts | 19° |
| 2026-05-04 18:00 | 54.37059 | -2.04163 | 2996 ft | 161 kts | 19° |
| 2026-05-04 18:01 | 54.38085 | -2.03416 | 2991 ft | 160 kts | 17° |
| 2026-05-04 18:01 | 54.39114 | -2.02696 | 2991 ft | 159 kts | 21° |
| 2026-05-04 18:01 | 54.40111 | -2.01934 | 2989 ft | 159 kts | 19° |
| 2026-05-04 18:02 | 54.42131 | -2.00480 | 2989 ft | 158 kts | 20° |
| 2026-05-04 18:02 | 54.43148 | -1.99742 | 2991 ft | 159 kts | 18° |
| 2026-05-04 18:02 | 54.44175 | -1.99028 | 2994 ft | 159 kts | 19° |
| 2026-05-04 18:02 | 54.45203 | -1.98299 | 2987 ft | 160 kts | 18° |
| 2026-05-04 18:03 | 54.46232 | -1.97574 | 2990 ft | 159 kts | 19° |
| 2026-05-04 18:03 | 54.47260 | -1.96854 | 2988 ft | 159 kts | 19° |
| 2026-05-04 18:03 | 54.48276 | -1.96124 | 2988 ft | 158 kts | 19° |
| 2026-05-04 18:03 | 54.49290 | -1.95394 | 2989 ft | 159 kts | 19° |
| 2026-05-04 18:04 | 54.50310 | -1.94662 | 2992 ft | 158 kts | 19° |
| 2026-05-04 18:04 | 54.51330 | -1.93933 | 2986 ft | 159 kts | 19° |
| 2026-05-04 18:04 | 54.53365 | -1.92483 | 2991 ft | 158 kts | 19° |
| 2026-05-04 18:05 | 54.54381 | -1.91737 | 2989 ft | 159 kts | 19° |
| 2026-05-04 18:05 | 54.55397 | -1.90994 | 2990 ft | 159 kts | 19° |
| 2026-05-04 18:05 | 54.56411 | -1.90254 | 2990 ft | 158 kts | 19° |
| 2026-05-04 18:05 | 54.57424 | -1.89515 | 2988 ft | 158 kts | 19° |
| 2026-05-04 18:06 | 54.59449 | -1.88034 | 2985 ft | 158 kts | 19° |
| 2026-05-04 18:06 | 54.60456 | -1.87297 | 2988 ft | 157 kts | 19° |
| 2026-05-04 18:06 | 54.61465 | -1.86557 | 2988 ft | 159 kts | 19° |
| 2026-05-04 18:07 | 54.62480 | -1.85812 | 2987 ft | 158 kts | 19° |
| 2026-05-04 18:07 | 54.63492 | -1.85067 | 2987 ft | 159 kts | 19° |
| 2026-05-04 18:07 | 54.64506 | -1.84318 | 2985 ft | 158 kts | 19° |
| 2026-05-04 18:07 | 54.65507 | -1.83579 | 2987 ft | 159 kts | 19° |
| 2026-05-04 18:08 | 54.66524 | -1.82826 | 2985 ft | 160 kts | 19° |
| 2026-05-04 18:08 | 54.67542 | -1.82070 | 2986 ft | 158 kts | 19° |
| 2026-05-04 18:08 | 54.68559 | -1.81317 | 2985 ft | 160 kts | 19° |
| 2026-05-04 18:08 | 54.69576 | -1.80562 | 2983 ft | 158 kts | 19° |
| 2026-05-04 18:09 | 54.71597 | -1.79064 | 2985 ft | 158 kts | 19° |
| 2026-05-04 18:09 | 54.73622 | -1.77561 | 2984 ft | 157 kts | 19° |
| 2026-05-04 18:10 | 54.74629 | -1.76818 | 2978 ft | 158 kts | 19° |
| 2026-05-04 18:10 | 54.75641 | -1.76061 | 2977 ft | 159 kts | 19° |
| 2026-05-04 18:10 | 54.76585 | -1.75348 | 2972 ft | 158 kts | 19° |
| 2026-05-04 18:10 | 54.77592 | -1.74586 | 2976 ft | 158 kts | 19° |
| 2026-05-04 18:11 | 54.78605 | -1.73819 | 2974 ft | 159 kts | 19° |
| 2026-05-04 18:11 | 54.79605 | -1.73056 | 2971 ft | 159 kts | 19° |
| 2026-05-04 18:11 | 54.80615 | -1.72285 | 2973 ft | 158 kts | 19° |
| 2026-05-04 18:11 | 54.81623 | -1.71508 | 2971 ft | 159 kts | 19° |
| 2026-05-04 18:12 | 54.82627 | -1.70728 | 2971 ft | 157 kts | 19° |
| 2026-05-04 18:12 | 54.83630 | -1.69951 | 2969 ft | 157 kts | 19° |
| 2026-05-04 18:12 | 54.84631 | -1.69168 | 2968 ft | 158 kts | 19° |
| 2026-05-04 18:12 | 54.85636 | -1.68379 | 2971 ft | 158 kts | 19° |
| 2026-05-04 18:13 | 54.86641 | -1.67596 | 2966 ft | 159 kts | 19° |
| 2026-05-04 18:13 | 54.87640 | -1.66803 | 2967 ft | 161 kts | 19° |
| 2026-05-04 18:13 | 54.89662 | -1.65238 | 2962 ft | 159 kts | 20° |
| 2026-05-04 18:14 | 54.90681 | -1.64475 | 2931 ft | 162 kts | 17° |
| 2026-05-04 18:14 | 54.91729 | -1.63761 | 2728 ft | 160 kts | 15° |
| 2026-05-04 18:14 | 54.92767 | -1.63035 | 2490 ft | 160 kts | 17° |
| 2026-05-04 18:15 | 54.94829 | -1.61740 | 2013 ft | 153 kts | 14° |
| 2026-05-04 18:15 | 54.96858 | -1.61110 | 1727 ft | 144 kts | 354° |
| 2026-05-04 18:15 | 54.97828 | -1.61167 | 1572 ft | 140 kts | 353° |
| 2026-05-04 18:16 | 54.98785 | -1.61356 | 1427 ft | 134 kts | 348° |
| 2026-05-04 18:16 | 54.99669 | -1.61582 | 1410 ft | 124 kts | 346° |
| 2026-05-04 18:16 | 55.00494 | -1.61816 | 1402 ft | 117 kts | 346° |
| 2026-05-04 18:17 | 55.02066 | -1.62321 | 1372 ft | 113 kts | 343° |
| 2026-05-04 18:17 | 55.02822 | -1.62625 | 1363 ft | 111 kts | 340° |
| 2026-05-04 18:17 | 55.04249 | -1.63281 | 1422 ft | 102 kts | 341° |
| 2026-05-04 18:18 | 55.04956 | -1.63559 | 1418 ft | 103 kts | 342° |
| 2026-05-04 18:18 | 55.05658 | -1.63836 | 1449 ft | 104 kts | 339° |
| 2026-05-04 18:18 | 55.06331 | -1.64209 | 1497 ft | 101 kts | 336° |
| 2026-05-04 18:18 | 55.07012 | -1.64629 | 1472 ft | 106 kts | 337° |
| 2026-05-04 18:19 | 55.08403 | -1.65462 | 1484 ft | 103 kts | 338° |
| 2026-05-04 18:19 | 55.09061 | -1.65845 | 1474 ft | 101 kts | 338° |
| 2026-05-04 18:19 | 55.09735 | -1.66227 | 1470 ft | 101 kts | 338° |
| 2026-05-04 18:20 | 55.10401 | -1.66607 | 1476 ft | 100 kts | 338° |
| 2026-05-04 18:20 | 55.11075 | -1.66969 | 1468 ft | 102 kts | 340° |
| 2026-05-04 18:20 | 55.11776 | -1.67289 | 1440 ft | 105 kts | 343° |
| 2026-05-04 18:20 | 55.12503 | -1.67542 | 1398 ft | 108 kts | 345° |
| 2026-05-04 18:21 | 55.13258 | -1.67734 | 1352 ft | 112 kts | 346° |
| 2026-05-04 18:21 | 55.14021 | -1.67888 | 1351 ft | 111 kts | 349° |
| 2026-05-04 18:21 | 55.14540 | -1.67978 | 1279 ft | 115 kts | 349° |
| 2026-05-04 18:21 | 55.15317 | -1.68212 | 1275 ft | 113 kts | 348° |
| 2026-05-04 18:22 | 55.16333 | -1.68388 | 1321 ft | 108 kts | 353° |
| 2026-05-04 18:22 | 55.17091 | -1.68441 | 1307 ft | 108 kts | 352° |
| 2026-05-04 18:22 | 55.17596 | -1.68481 | 1314 ft | 107 kts | 353° |
| 2026-05-04 18:22 | 55.18330 | -1.68541 | 1321 ft | 107 kts | 353° |
| 2026-05-04 18:23 | 55.19085 | -1.68594 | 1322 ft | 108 kts | 353° |
| 2026-05-04 18:23 | 55.19835 | -1.68674 | 1323 ft | 108 kts | 353° |
| 2026-05-04 18:23 | 55.20579 | -1.68776 | 1324 ft | 107 kts | 354° |
| 2026-05-04 18:23 | 55.21319 | -1.68846 | 1321 ft | 107 kts | 354° |
| 2026-05-04 18:24 | 55.22063 | -1.68895 | 1325 ft | 107 kts | 354° |
| 2026-05-04 18:24 | 55.22804 | -1.68962 | 1329 ft | 106 kts | 353° |
| 2026-05-04 18:24 | 55.23493 | -1.69031 | 1464 ft | 94 kts | 356° |
| 2026-05-04 18:24 | 55.24168 | -1.68999 | 1464 ft | 100 kts | 358° |
| 2026-05-04 18:25 | 55.24861 | -1.68954 | 1438 ft | 94 kts | 356° |
| 2026-05-04 18:25 | 55.25447 | -1.68948 | 1404 ft | 74 kts | 353° |
| 2026-05-04 18:25 | 55.25941 | -1.68944 | 1328 ft | 72 kts | 354° |
| 2026-05-04 18:25 | 55.26474 | -1.68983 | 1247 ft | 79 kts | 352° |
| 2026-05-04 18:26 | 55.26997 | -1.69080 | 1276 ft | 68 kts | 349° |
| 2026-05-04 18:26 | 55.27465 | -1.69201 | 1277 ft | 67 kts | 336° |
| 2026-05-04 18:26 | 55.27852 | -1.69507 | 1341 ft | 56 kts | 328° |
| 2026-05-04 18:26 | 55.28206 | -1.69853 | 1278 ft | 72 kts | 323° |
| 2026-05-04 18:27 | 55.28436 | -1.70641 | 1304 ft | 87 kts | 250° |
| 2026-05-04 18:27 | 55.28115 | -1.71637 | 1357 ft | 97 kts | 251° |
| 2026-05-04 18:27 | 55.27969 | -1.72767 | 1302 ft | 99 kts | 269° |
| 2026-05-04 18:27 | 55.27776 | -1.73932 | 1211 ft | 100 kts | 235° |
| 2026-05-04 18:28 | 55.27124 | -1.74399 | 948 ft | 111 kts | 184° |
| 2026-05-04 18:28 | 55.26431 | -1.74409 | 896 ft | 89 kts | 181° |
| 2026-05-04 18:28 | 55.25915 | -1.74212 | 820 ft | 70 kts | 125° |
| 2026-05-04 18:28 | 55.26066 | -1.73460 | 716 ft | 72 kts | 54° |
| 2026-05-04 18:29 | 55.26351 | -1.72750 | 736 ft | 70 kts | 44° |
| 2026-05-04 18:29 | 55.26799 | -1.72413 | 517 ft | 72 kts | 1° |
| 2026-05-04 18:29 | 55.27290 | -1.72316 | 303 ft | 71 kts | 6° |
| 2026-05-04 18:29 | 55.27744 | -1.72201 | 201 ft | 55 kts | 4° |
| 2026-05-04 18:30 | 55.27953 | -1.72138 | 201 ft | 0 kts | 60° |